Time;durP1;ratioP1;P1;durP2;ratioP2;P2;SDS_P1;SDS_P2;PMS_P1;PMS_P2;Temp;Humidity;BMP_temperature;BMP_pressure;BME280_temperature;BME280_humidity;BME280_pressure;Samples;Min_cycle;Max_cycle;Signal;HPM_P1;HPM_P2
2022/07/12 00:00:50;;;;;;;4.85;3.53;;;14.30;99.90;;;;;;4950499;29;20039;-72
2022/07/12 00:03:22;;;;;;;3.83;2.67;;;14.20;99.90;;;;;;4943516;29;20054;-72
2022/07/12 00:05:54;;;;;;;4.03;2.78;;;14.20;99.90;;;;;;4945842;29;20543;-72
2022/07/12 00:08:27;;;;;;;3.75;3.42;;;14.20;99.90;;;;;;4945586;29;20043;-72
2022/07/12 00:10:59;;;;;;;3.50;3.20;;;14.10;99.90;;;;;;4952154;28;20039;-72
2022/07/12 00:13:31;;;;;;;3.92;3.28;;;14.10;99.90;;;;;;4943724;29;20297;-72
2022/07/12 00:16:03;;;;;;;3.67;3.28;;;14.00;99.90;;;;;;4944810;28;20044;-72
2022/07/12 00:18:35;;;;;;;3.60;2.83;;;14.00;99.90;;;;;;4945068;28;20704;-72
2022/07/12 00:21:07;;;;;;;3.85;3.45;;;14.00;99.90;;;;;;4947363;29;20049;-71
2022/07/12 00:23:39;;;;;;;3.15;2.72;;;14.00;99.90;;;;;;4942754;29;20054;-72
2022/07/12 00:26:10;;;;;;;3.28;2.95;;;14.00;99.90;;;;;;4952877;29;20035;-72
2022/07/12 00:28:37;;;;;;;3.58;3.20;;;14.00;99.90;;;;;;4974988;23;20055;-72
2022/07/12 00:31:09;;;;;;;3.20;2.90;;;13.90;99.90;;;;;;4955125;28;20051;-72
2022/07/12 00:33:41;;;;;;;3.65;2.97;;;13.90;99.90;;;;;;4957910;28;20043;-71
2022/07/12 00:36:12;;;;;;;4.20;3.47;;;13.80;99.90;;;;;;4938751;29;20048;-71
2022/07/12 00:38:39;;;;;;;4.63;3.55;;;13.80;99.90;;;;;;4954843;28;20035;-72
2022/07/12 00:41:11;;;;;;;4.85;4.13;;;13.80;99.90;;;;;;4961815;28;20047;-70
2022/07/12 00:43:43;;;;;;;5.30;4.80;;;13.80;99.90;;;;;;4963733;28;20514;-72
2022/07/12 00:46:17;;;;;;;4.43;4.03;;;13.80;99.90;;;;;;4961963;28;20049;-71
2022/07/12 00:48:50;;;;;;;5.55;4.40;;;13.70;99.90;;;;;;4954510;28;20039;-72
2022/07/12 00:51:21;;;;;;;6.35;4.57;;;13.70;99.90;;;;;;4955028;28;20031;-72
2022/07/12 00:53:55;;;;;;;5.80;4.78;;;13.60;99.90;;;;;;4956643;28;20069;-71
2022/07/12 00:56:27;;;;;;;6.43;4.20;;;13.50;99.90;;;;;;4967834;28;20507;-72
2022/07/12 00:58:59;;;;;;;4.80;4.30;;;13.50;99.90;;;;;;4954341;28;20062;-72
2022/07/12 01:01:31;;;;;;;4.88;4.40;;;13.50;99.90;;;;;;4964200;28;20058;-72
2022/07/12 01:04:03;;;;;;;4.95;4.45;;;13.50;99.90;;;;;;4958463;28;20043;-71
2022/07/12 01:06:31;;;;;;;5.07;4.15;;;13.40;99.90;;;;;;4968282;28;20042;-71
2022/07/12 01:09:02;;;;;;;3.83;3.42;;;13.30;99.90;;;;;;4958467;28;20043;-72
2022/07/12 01:11:35;;;;;;;4.30;3.88;;;13.20;99.90;;;;;;4944340;28;20046;-71
2022/07/12 01:14:07;;;;;;;5.65;3.88;;;13.20;99.90;;;;;;4962922;28;20070;-71
2022/07/12 01:16:39;;;;;;;4.60;4.07;;;13.10;99.90;;;;;;4966322;28;20054;-71
2022/07/12 01:19:20;;;;;;;4.60;4.18;;;13.20;99.90;;;;;;4964311;28;20042;-72
2022/07/12 01:21:56;;;;;;;4.88;3.65;;;13.20;99.90;;;;;;4953104;28;20366;-71
2022/07/12 01:24:28;;;;;;;5.45;3.22;;;13.10;99.90;;;;;;4975046;28;20531;-72
2022/07/12 01:27:02;;;;;;;4.78;3.90;;;12.90;99.90;;;;;;4959366;28;20061;-72
2022/07/12 01:29:35;;;;;;;4.85;4.13;;;12.90;99.90;;;;;;4937333;28;20055;-71
2022/07/12 01:32:25;;;;;;;3.63;3.17;;;12.90;99.90;;;;;;4956752;28;20459;-72
2022/07/12 01:35:00;;;;;;;4.20;3.42;;;12.90;99.90;;;;;;4960736;28;20059;-71
2022/07/12 01:37:37;;;;;;;3.60;3.30;;;12.80;99.90;;;;;;4961418;28;20054;-72
2022/07/12 01:40:14;;;;;;;5.93;3.70;;;12.80;99.90;;;;;;4956225;28;20528;-71
2022/07/12 01:42:47;;;;;;;4.03;3.63;;;12.80;99.90;;;;;;4955565;28;20047;-71
2022/07/12 01:45:14;;;;;;;3.67;3.08;;;12.90;99.90;;;;;;4963265;28;20047;-71
2022/07/12 01:47:46;;;;;;;4.20;3.35;;;12.90;99.90;;;;;;4959168;28;20495;-71
2022/07/12 01:50:17;;;;;;;4.22;3.83;;;12.90;99.90;;;;;;4955782;28;20131;-71
2022/07/12 01:52:49;;;;;;;4.55;3.28;;;12.90;99.90;;;;;;4974200;28;20063;-72
2022/07/12 01:55:23;;;;;;;4.28;3.72;;;12.90;99.90;;;;;;4957529;28;20065;-71
2022/07/12 01:57:54;;;;;;;;;;;12.90;99.90;;;;;;4955646;28;20431;-72
2022/07/12 02:00:22;;;;;;;3.95;3.55;;;12.80;99.90;;;;;;4963038;28;19933;-72
2022/07/12 02:02:49;;;;;;;3.70;3.30;;;12.80;99.90;;;;;;4952539;28;20082;-71
2022/07/12 02:05:21;;;;;;;3.30;3.00;;;12.70;99.90;;;;;;4961018;28;20499;-72
2022/07/12 02:07:54;;;;;;;3.78;3.22;;;12.80;99.90;;;;;;4959686;28;20055;-72
2022/07/12 02:10:26;;;;;;;3.30;2.97;;;12.80;99.90;;;;;;4941591;28;20502;-71
2022/07/12 02:12:59;;;;;;;4.55;3.58;;;12.80;99.90;;;;;;4958920;28;20049;-72
2022/07/12 02:15:31;;;;;;;3.88;3.47;;;12.80;99.90;;;;;;4960710;28;20508;-72
2022/07/12 02:18:02;;;;;;;3.72;3.25;;;12.80;99.90;;;;;;4952853;28;20106;-72
2022/07/12 02:20:34;;;;;;;4.10;3.70;;;12.80;99.90;;;;;;4954010;28;20047;-71
2022/07/12 02:23:06;;;;;;;4.07;3.45;;;12.80;99.90;;;;;;4964963;28;20039;-72
2022/07/12 02:25:38;;;;;;;4.00;3.47;;;12.70;99.90;;;;;;4970160;28;20074;-72
2022/07/12 02:28:09;;;;;;;3.97;3.58;;;12.70;99.90;;;;;;4947886;29;20050;-72
2022/07/12 02:30:41;;;;;;;4.60;3.72;;;12.70;99.90;;;;;;4954731;28;20053;-71
2022/07/12 02:33:16;;;;;;;4.13;3.72;;;12.70;99.90;;;;;;4963695;28;20050;-72
2022/07/12 02:35:48;;;;;;;4.97;3.80;;;12.70;99.90;;;;;;4956211;28;20051;-71
2022/07/12 02:38:22;;;;;;;6.07;3.67;;;12.80;99.90;;;;;;4970779;28;20047;-71
2022/07/12 02:40:54;;;;;;;6.13;3.60;;;12.80;99.90;;;;;;4965313;28;20042;-71
2022/07/12 02:43:27;;;;;;;4.10;3.55;;;12.80;99.90;;;;;;4964678;28;20654;-72
2022/07/12 02:46:17;;;;;;;;;;;12.70;99.90;;;;;;4958845;28;20046;-72
2022/07/12 02:48:49;;;;;;;3.78;3.22;;;12.70;99.90;;;;;;4951365;28;20398;-71
2022/07/12 02:51:21;;;;;;;4.22;3.75;;;12.70;99.90;;;;;;4956144;28;20117;-72
2022/07/12 02:53:52;;;;;;;4.80;4.28;;;12.70;99.90;;;;;;4962191;28;20066;-72
2022/07/12 02:56:24;;;;;;;4.78;3.92;;;12.70;99.90;;;;;;4960987;28;20258;-72
2022/07/12 02:58:56;;;;;;;4.88;3.80;;;12.80;99.90;;;;;;4966292;28;20043;-71
2022/07/12 03:01:27;;;;;;;4.40;3.83;;;12.80;99.90;;;;;;4959735;28;20506;-71
2022/07/12 03:03:59;;;;;;;5.43;4.00;;;12.80;99.90;;;;;;4966239;28;20518;-72
2022/07/12 03:06:31;;;;;;;4.45;4.05;;;12.80;99.90;;;;;;4944265;28;20054;-72
2022/07/12 03:09:02;;;;;;;4.90;3.97;;;12.80;99.90;;;;;;4973261;28;20499;-72
2022/07/12 03:11:29;;;;;;;4.10;3.70;;;12.90;99.90;;;;;;4967358;28;20410;-72
2022/07/12 03:14:01;;;;;;;4.90;4.40;;;12.90;99.90;;;;;;4971362;28;20055;-71
2022/07/12 03:16:33;;;;;;;6.13;4.13;;;12.90;99.90;;;;;;4962953;28;20407;-71
2022/07/12 03:19:05;;;;;;;5.55;4.05;;;12.90;99.90;;;;;;4964669;28;20051;-71
2022/07/12 03:21:36;;;;;;;5.50;4.47;;;12.90;99.90;;;;;;4952033;28;20050;-71
2022/07/12 03:24:10;;;;;;;4.78;4.22;;;12.90;99.90;;;;;;4968066;28;20126;-72
2022/07/12 03:26:41;;;;;;;5.35;4.43;;;12.80;99.90;;;;;;4966288;28;20423;-71
2022/07/12 03:29:15;;;;;;;4.45;3.97;;;12.80;99.90;;;;;;4964598;28;20487;-72
2022/07/12 03:31:47;;;;;;;5.75;4.50;;;12.70;99.90;;;;;;4979590;28;20499;-72
2022/07/12 03:34:18;;;;;;;4.18;3.78;;;12.70;99.90;;;;;;4947754;28;20070;-72
2022/07/12 03:36:51;;;;;;;5.90;3.80;;;12.70;99.90;;;;;;4971774;28;20043;-71
2022/07/12 03:39:23;;;;;;;5.28;3.83;;;12.70;99.90;;;;;;4980794;28;20106;-71
2022/07/12 03:41:55;;;;;;;6.00;4.45;;;12.50;99.90;;;;;;4985642;28;20061;-71
2022/07/12 03:44:30;;;;;;;4.90;4.07;;;12.40;99.90;;;;;;4961064;28;20039;-72
2022/07/12 03:47:02;;;;;;;6.20;4.13;;;12.40;99.90;;;;;;4963513;28;20062;-72
2022/07/12 03:49:33;;;;;;;4.47;3.90;;;12.50;99.90;;;;;;4962163;28;20039;-71
2022/07/12 03:52:06;;;;;;;4.30;3.75;;;12.60;99.90;;;;;;4960261;28;20053;-72
2022/07/12 03:54:38;;;;;;;4.55;3.97;;;12.70;99.90;;;;;;4969485;28;20059;-72
2022/07/12 03:57:13;;;;;;;4.85;4.22;;;12.70;99.90;;;;;;4954033;28;20047;-71
2022/07/12 03:59:45;;;;;;;6.68;5.07;;;12.70;99.90;;;;;;4956015;28;20097;-72
2022/07/12 04:02:17;;;;;;;6.65;4.50;;;12.70;99.90;;;;;;4948627;28;20043;-71
2022/07/12 04:04:49;;;;;;;6.78;5.53;;;12.70;99.90;;;;;;4971291;28;20043;-71
2022/07/12 04:07:21;;;;;;;9.40;6.50;;;12.70;99.90;;;;;;4967152;28;20078;-72
2022/07/12 04:09:48;;;;;;;7.97;6.03;;;12.70;99.90;;;;;;4959303;28;20407;-71
2022/07/12 04:12:20;;;;;;;10.20;6.35;;;12.70;99.90;;;;;;4934847;28;20054;-72
2022/07/12 04:14:52;;;;;;;12.27;6.60;;;12.70;99.90;;;;;;4968750;28;20062;-72
2022/07/12 04:17:19;;;;;;;11.00;6.15;;;12.70;99.90;;;;;;4950297;28;20044;-73
2022/07/12 04:19:50;;;;;;;6.45;5.50;;;12.70;99.90;;;;;;4953251;28;20050;-72
2022/07/12 04:22:22;;;;;;;5.82;5.22;;;12.70;99.90;;;;;;4949196;28;20035;-71
2022/07/12 04:24:54;;;;;;;5.70;5.10;;;12.80;99.90;;;;;;4967716;28;20049;-71
2022/07/12 04:27:26;;;;;;;6.13;5.38;;;12.80;99.90;;;;;;4951703;28;20054;-72
2022/07/12 04:29:58;;;;;;;6.13;5.20;;;12.80;99.90;;;;;;4959281;28;20044;-71
2022/07/12 04:32:25;;;;;;;6.35;5.00;;;12.80;99.90;;;;;;4962051;28;20042;-72
2022/07/12 04:34:51;;;;;;;7.28;5.65;;;12.70;99.90;;;;;;4961024;28;20073;-72
2022/07/12 04:37:23;;;;;;;6.80;5.78;;;12.70;99.90;;;;;;4956392;28;20058;-71
2022/07/12 04:39:55;;;;;;;5.93;5.13;;;12.70;99.90;;;;;;4950680;28;20047;-72
2022/07/12 04:42:27;;;;;;;6.05;5.28;;;12.70;99.90;;;;;;4954746;28;20586;-73
2022/07/12 04:44:59;;;;;;;6.03;5.15;;;12.80;99.90;;;;;;4957664;28;20082;-73
2022/07/12 04:47:30;;;;;;;9.55;5.03;;;12.80;99.90;;;;;;4950549;29;20047;-72
2022/07/12 04:50:07;;;;;;;5.38;4.55;;;12.80;99.90;;;;;;4956709;28;20138;-71
2022/07/12 04:52:38;;;;;;;6.10;4.90;;;12.80;99.90;;;;;;4969697;28;20035;-71
2022/07/12 04:55:10;;;;;;;8.75;4.30;;;12.80;99.90;;;;;;4968700;28;20074;-71
2022/07/12 04:57:37;;;;;;;53.85;7.90;;;12.90;99.90;;;;;;4961701;28;20051;-72
2022/07/12 05:00:05;;;;;;;51.67;8.05;;;12.90;99.90;;;;;;4956608;28;20062;-72
2022/07/12 05:02:37;;;;;;;30.63;6.85;;;13.00;99.90;;;;;;4937971;29;20411;-72
2022/07/12 05:05:09;;;;;;;15.75;5.38;;;13.00;99.90;;;;;;4944692;28;20043;-71
2022/07/12 05:07:41;;;;;;;25.77;5.93;;;13.00;99.90;;;;;;4947413;28;20738;-72
2022/07/12 05:10:13;;;;;;;18.50;5.45;;;13.10;99.90;;;;;;4962161;28;20050;-71
2022/07/12 05:12:45;;;;;;;12.65;6.15;;;13.10;99.90;;;;;;4958223;28;20366;-72
2022/07/12 05:15:18;;;;;;;11.65;6.45;;;13.20;99.90;;;;;;4954130;28;20043;-71
2022/07/12 05:17:49;;;;;;;7.57;5.82;;;13.20;99.90;;;;;;4944976;28;20066;-71
2022/07/12 05:20:21;;;;;;;14.55;7.35;;;13.30;99.90;;;;;;4952593;28;20057;-72
2022/07/12 05:22:53;;;;;;;8.52;5.85;;;13.30;99.90;;;;;;4957490;28;20055;-71
2022/07/12 05:25:25;;;;;;;6.85;5.65;;;13.30;99.90;;;;;;4961156;28;20035;-72
2022/07/12 05:27:57;;;;;;;10.35;6.13;;;13.30;99.90;;;;;;4966180;28;20049;-72
2022/07/12 05:30:28;;;;;;;6.38;5.15;;;13.20;99.90;;;;;;4950632;28;20035;-71
2022/07/12 05:33:01;;;;;;;9.45;5.65;;;13.20;99.90;;;;;;4964512;28;20047;-72
2022/07/12 05:35:32;;;;;;;6.75;5.38;;;13.20;99.90;;;;;;4959784;28;20062;-71
2022/07/12 05:38:04;;;;;;;6.75;5.78;;;13.20;99.90;;;;;;4953546;28;20043;-72
2022/07/12 05:40:36;;;;;;;7.45;6.07;;;13.20;99.90;;;;;;4951765;28;20101;-72
2022/07/12 05:43:02;;;;;;;6.22;5.63;;;13.30;99.90;;;;;;4956314;28;20403;-72
2022/07/12 05:45:34;;;;;;;6.32;5.70;;;13.40;99.90;;;;;;4968565;28;20042;-71
2022/07/12 05:48:06;;;;;;;6.82;6.07;;;13.40;99.90;;;;;;4957784;28;20059;-71
2022/07/12 05:50:38;;;;;;;10.75;6.28;;;13.70;99.90;;;;;;4950192;28;20045;-72
2022/07/12 05:53:22;;;;;;;6.95;5.60;;;13.80;99.90;;;;;;4956263;28;20778;-72
2022/07/12 05:55:54;;;;;;;7.70;6.20;;;13.80;99.90;;;;;;4951821;28;20058;-72
2022/07/12 05:58:25;;;;;;;9.73;7.00;;;13.90;99.90;;;;;;4967188;28;20040;-72
2022/07/12 06:00:52;;;;;;;10.00;6.80;;;14.00;99.90;;;;;;4965936;28;20051;-72
2022/07/12 06:03:19;;;;;;;6.68;5.95;;;14.10;99.90;;;;;;4968075;28;20047;-71
2022/07/12 06:05:51;;;;;;;7.57;6.63;;;14.10;99.90;;;;;;4959038;28;20047;-71
2022/07/12 06:08:22;;;;;;;7.47;6.53;;;14.20;99.90;;;;;;4966636;28;20518;-72
2022/07/12 06:10:54;;;;;;;7.40;6.65;;;14.30;99.90;;;;;;4954464;28;20051;-72
2022/07/12 06:13:26;;;;;;;9.02;7.32;;;14.30;99.90;;;;;;4955391;28;20045;-72
2022/07/12 06:15:59;;;;;;;7.85;6.53;;;14.40;99.90;;;;;;4954267;28;20118;-71
2022/07/12 06:18:30;;;;;;;8.68;6.93;;;14.50;99.90;;;;;;4956656;28;20043;-72
2022/07/12 06:21:03;;;;;;;11.90;6.45;;;14.50;99.90;;;;;;4959030;28;20073;-72
2022/07/12 06:23:35;;;;;;;12.75;9.80;;;14.70;99.90;;;;;;4957140;28;20497;-71
2022/07/12 06:26:07;;;;;;;11.13;8.43;;;14.70;99.90;;;;;;4936494;28;20039;-71
2022/07/12 06:28:39;;;;;;;10.35;8.40;;;14.80;99.90;;;;;;4946906;29;20058;-71
2022/07/12 06:31:05;;;;;;;10.27;7.63;;;14.90;99.90;;;;;;4964734;28;20066;-71
2022/07/12 06:33:37;;;;;;;10.18;7.03;;;14.90;99.90;;;;;;4969469;28;20049;-72
2022/07/12 06:36:09;;;;;;;7.13;6.43;;;15.10;99.90;;;;;;5005850;23;20030;-83
2022/07/12 06:38:46;;;;;;;7.03;5.80;;;15.20;99.90;;;;;;5027134;28;20061;-86
2022/07/12 06:41:20;;;;;;;9.25;6.20;;;15.30;99.90;;;;;;5024534;28;20023;-85
2022/07/12 06:44:43;;;;;;;7.50;5.85;;;15.40;99.90;;;;;;4989106;28;20053;-83
2022/07/12 06:47:29;;;;;;;7.35;5.72;;;15.50;99.90;;;;;;5027756;28;20038;-83
2022/07/12 06:50:00;;;;;;;6.45;5.40;;;15.60;99.90;;;;;;4995913;23;20070;-71
2022/07/12 06:52:32;;;;;;;7.50;5.07;;;15.70;99.90;;;;;;4997126;28;20046;-71
2022/07/12 06:55:04;;;;;;;7.30;3.60;;;15.90;99.90;;;;;;4974814;28;20066;-72
2022/07/12 06:57:37;;;;;;;6.40;4.30;;;15.90;99.90;;;;;;4983539;28;20042;-71
2022/07/12 07:00:09;;;;;;;5.05;4.25;;;16.00;99.90;;;;;;4993880;28;20042;-71
2022/07/12 07:02:41;;;;;;;6.68;4.00;;;16.10;99.90;;;;;;4987648;28;20049;-72
2022/07/12 07:05:15;;;;;;;9.10;4.40;;;16.20;99.90;;;;;;4989287;28;20061;-71
2022/07/12 07:07:47;;;;;;;6.30;4.15;;;16.30;99.90;;;;;;4972601;28;20527;-72
2022/07/12 07:10:18;;;;;;;4.30;3.72;;;16.40;99.90;;;;;;4975658;28;20047;-72
2022/07/12 07:12:50;;;;;;;4.47;3.95;;;16.50;99.90;;;;;;4975214;28;20126;-72
2022/07/12 07:15:22;;;;;;;3.53;2.70;;;16.60;99.90;;;;;;4973492;28;20149;-71
2022/07/12 07:17:54;;;;;;;3.50;3.20;;;16.70;99.90;;;;;;4978255;28;20053;-71
2022/07/12 07:20:25;;;;;;;4.28;3.53;;;16.80;99.90;;;;;;4980886;28;20054;-71
2022/07/12 07:22:57;;;;;;;6.72;3.72;;;16.90;99.90;;;;;;4975214;28;20042;-71
2022/07/12 07:25:29;;;;;;;4.03;2.38;;;17.00;99.90;;;;;;4988962;28;20525;-72
2022/07/12 07:28:00;;;;;;;2.92;2.30;;;17.20;99.90;;;;;;4974953;28;20042;-71
2022/07/12 07:33:21;;;;;;;4.03;2.63;;;17.30;99.90;;;;;;4974815;28;20045;-72
2022/07/12 07:35:52;;;;;;;6.47;2.67;;;17.40;99.90;;;;;;4973780;28;20046;-71
2022/07/12 07:38:24;;;;;;;3.60;3.03;;;17.50;99.90;;;;;;4974952;28;20057;-73
2022/07/12 07:40:55;;;;;;;2.97;2.65;;;17.60;99.90;;;;;;4975024;28;20043;-72
2022/07/12 07:43:27;;;;;;;5.13;2.65;;;17.60;99.90;;;;;;4975356;28;20109;-72
2022/07/12 07:45:59;;;;;;;3.03;2.55;;;17.70;99.90;;;;;;4972989;28;20054;-71
2022/07/12 07:48:30;;;;;;;2.90;2.60;;;17.80;99.90;;;;;;4957709;28;20050;-72
2022/07/12 07:51:02;;;;;;;2.72;2.50;;;18.00;99.90;;;;;;4981935;28;20050;-71
2022/07/12 07:53:29;;;;;;;4.43;2.70;;;18.10;99.90;;;;;;4984183;28;20049;-72
2022/07/12 07:56:01;;;;;;;3.70;2.75;;;18.30;99.90;;;;;;4983082;28;20414;-72
2022/07/12 07:58:32;;;;;;;2.95;2.65;;;18.40;99.90;;;;;;4992372;28;20056;-71
2022/07/12 08:01:04;;;;;;;3.50;2.30;;;18.40;99.90;;;;;;4982442;28;20085;-72
2022/07/12 08:03:36;;;;;;;5.65;2.10;;;18.60;99.90;;;;;;4993711;28;20198;-72
2022/07/12 08:06:03;;;;;;;3.28;2.22;;;18.70;99.90;;;;;;4992473;28;20039;-71
2022/07/12 08:08:35;;;;;;;3.15;2.22;;;18.80;99.90;;;;;;4976394;28;20045;-71
2022/07/12 08:11:06;;;;;;;4.60;3.67;;;18.90;99.90;;;;;;4993851;28;20042;-71
2022/07/12 08:13:38;;;;;;;4.70;4.07;;;19.00;99.90;;;;;;4969921;28;20046;-72
2022/07/12 08:16:10;;;;;;;7.63;3.58;;;19.10;99.90;;;;;;4994652;28;20046;-71
2022/07/12 08:18:42;;;;;;;4.25;2.58;;;19.10;99.90;;;;;;4993949;28;20043;-71
2022/07/12 08:21:09;;;;;;;5.90;3.03;;;19.20;99.90;;;;;;4976623;28;20518;-71
2022/07/12 08:23:40;;;;;;;3.30;3.00;;;19.30;99.90;;;;;;4993918;28;20046;-71
2022/07/12 08:26:12;;;;;;;2.97;2.67;;;19.40;99.90;;;;;;4982868;28;20034;-72
2022/07/12 08:28:44;;;;;;;2.58;2.30;;;19.40;99.90;;;;;;5002161;28;20490;-72
2022/07/12 08:31:16;;;;;;;2.53;2.28;;;19.40;99.90;;;;;;4977931;28;20906;-71
2022/07/12 08:33:48;;;;;;;4.37;2.97;;;19.40;99.90;;;;;;4993346;28;20060;-72
2022/07/12 08:36:20;;;;;;;3.13;2.83;;;19.40;99.90;;;;;;4992730;28;20042;-72
2022/07/12 08:38:52;;;;;;;2.55;2.35;;;19.30;99.90;;;;;;4993857;28;20060;-71
2022/07/12 08:41:23;;;;;;;2.58;2.38;;;19.30;99.90;;;;;;4993948;28;20041;-71
2022/07/12 08:43:55;;;;;;;4.57;2.10;;;19.30;99.90;;;;;;4993541;28;20050;-71
2022/07/12 08:46:27;;;;;;;2.30;2.10;;;19.50;99.90;;;;;;4994307;28;20046;-71
2022/07/12 08:49:06;;;;;;;2.58;1.58;;;19.70;99.90;;;;;;5008410;28;20038;-73
2022/07/12 08:51:37;;;;;;;2.28;1.80;;;20.00;99.90;;;;;;4993753;28;20049;-71
2022/07/12 08:54:12;;;;;;;1.63;1.20;;;20.30;99.90;;;;;;4993094;28;20042;-71
2022/07/12 08:56:44;;;;;;;1.45;1.17;;;20.50;99.90;;;;;;4981536;28;20042;-71
2022/07/12 08:59:18;;;;;;;2.95;1.35;;;20.60;99.90;;;;;;4990759;28;20042;-71
2022/07/12 09:01:54;;;;;;;3.45;1.55;;;20.80;99.90;;;;;;4992580;28;20096;-73
2022/07/12 09:04:30;;;;;;;3.20;1.50;;;20.90;99.90;;;;;;4992642;28;20418;-71
2022/07/12 09:07:14;;;;;;;1.45;1.35;;;20.90;99.90;;;;;;4998722;28;20038;-71
2022/07/12 09:09:48;;;;;;;2.03;1.30;;;20.70;99.90;;;;;;5003252;28;20522;-72
2022/07/12 09:12:23;;;;;;;6.03;2.35;;;20.60;99.90;;;;;;4984323;28;20038;-70
2022/07/12 09:15:09;;;;;;;1.48;1.38;;;20.50;99.90;;;;;;4995099;28;20053;-71
2022/07/12 09:18:12;;;;;;;1.67;1.48;;;20.50;99.90;;;;;;4992507;28;20069;-71
2022/07/12 09:20:52;;;;;;;1.70;1.60;;;20.60;99.90;;;;;;4973506;28;20637;-71
2022/07/12 09:23:24;;;;;;;2.80;1.70;;;20.60;99.90;;;;;;4966185;28;20384;-71
2022/07/12 09:25:56;;;;;;;1.63;1.52;;;20.60;99.90;;;;;;4991520;28;20521;-71
2022/07/12 09:28:27;;;;;;;1.75;1.60;;;20.70;99.90;;;;;;4992807;28;20038;-71
2022/07/12 09:31:01;;;;;;;1.30;1.20;;;21.00;99.90;;;;;;4991896;28;20578;-71
2022/07/12 09:36:26;;;;;;;9.18;8.25;;;21.40;99.90;;;;;;4991617;28;20669;-71
2022/07/12 09:39:00;;;;;;;3.65;2.33;;;21.50;99.90;;;;;;4992732;28;20042;-71
2022/07/12 09:41:33;;;;;;;3.20;1.50;;;21.50;99.90;;;;;;4992365;28;20411;-71
2022/07/12 09:44:05;;;;;;;1.52;1.27;;;21.40;99.90;;;;;;4992603;28;20499;-72
2022/07/12 09:46:37;;;;;;;1.65;1.30;;;21.40;99.90;;;;;;4991327;28;20038;-71
2022/07/12 09:49:10;;;;;;;2.15;1.27;;;21.40;99.90;;;;;;4992646;28;20048;-71
2022/07/12 09:51:43;;;;;;;4.07;1.20;;;21.30;99.90;;;;;;4992772;28;20052;-72
2022/07/12 09:54:25;;;;;;;2.05;1.30;;;21.30;99.90;;;;;;4992126;28;20046;-71
2022/07/12 09:56:59;;;;;;;2.60;1.90;;;21.20;99.90;;;;;;4987427;28;20050;-70
2022/07/12 09:59:34;;;;;;;2.10;1.25;;;21.30;99.90;;;;;;5000410;28;20408;-71
2022/07/12 10:02:07;;;;;;;3.55;1.48;;;21.30;99.90;;;;;;4992117;28;20506;-69
2022/07/12 10:04:38;;;;;;;4.68;1.52;;;21.60;99.90;;;;;;4974808;28;20046;-69
2022/07/12 10:07:13;;;;;;;7.60;1.40;;;22.00;99.90;;;;;;4996280;28;20034;-69
2022/07/12 10:09:47;;;;;;;2.15;1.40;;;22.40;99.90;;;;;;4992308;28;20046;-68
2022/07/12 10:12:21;;;;;;;2.15;1.35;;;22.70;99.90;;;;;;4992469;28;20532;-70
2022/07/12 10:15:01;;;;;;;2.65;1.40;;;22.70;99.90;;;;;;4991379;28;20050;-71
2022/07/12 10:17:34;;;;;;;1.60;1.30;;;22.80;99.90;;;;;;4991659;28;20050;-71
2022/07/12 10:20:23;;;;;;;1.63;1.08;;;22.70;99.90;;;;;;4992245;28;20056;-72
2022/07/12 10:23:19;;;;;;;1.20;1.00;;;22.80;99.90;;;;;;4984504;28;20047;-71
2022/07/12 10:25:51;;;;;;;1.48;1.20;;;22.50;99.90;;;;;;4991195;28;20046;-71
2022/07/12 10:28:43;;;;;;;1.80;1.05;;;22.60;99.90;;;;;;5001193;28;20057;-71
2022/07/12 10:31:16;;;;;;;1.20;1.10;;;22.80;99.90;;;;;;4989673;28;20066;-71
2022/07/12 10:33:48;;;;;;;1.38;1.20;;;23.10;99.90;;;;;;4992079;28;20042;-71
2022/07/12 10:36:19;;;;;;;1.50;1.20;;;23.20;99.90;;;;;;4993977;28;20125;-71
2022/07/12 10:39:27;;;;;;;1.40;1.00;;;23.50;99.90;;;;;;4991924;28;20039;-71
2022/07/12 10:42:07;;;;;;;1.10;1.00;;;23.70;99.90;;;;;;4950896;29;20054;-71
2022/07/12 10:44:41;;;;;;;1.08;0.93;;;23.50;99.70;;;;;;4985753;28;20055;-69
2022/07/12 10:47:15;;;;;;;1.92;1.20;;;23.40;99.50;;;;;;5000577;28;20062;-69
2022/07/12 10:49:52;;;;;;;3.17;1.08;;;23.40;99.20;;;;;;5002494;28;20045;-69
2022/07/12 10:52:26;;;;;;;1.02;0.90;;;23.50;99.00;;;;;;4982504;28;20885;-68
2022/07/12 10:54:57;;;;;;;1.00;0.90;;;23.50;98.50;;;;;;4986759;28;20422;-68
2022/07/12 10:57:44;;;;;;;1.20;1.00;;;23.70;98.40;;;;;;4995103;28;20057;-69
2022/07/12 11:00:17;;;;;;;4.07;1.10;;;23.80;97.70;;;;;;4976039;28;20042;-68
2022/07/12 11:02:49;;;;;;;4.40;1.00;;;23.90;98.00;;;;;;4986942;28;20043;-68
2022/07/12 11:05:27;;;;;;;2.58;1.00;;;23.60;98.00;;;;;;4989862;28;20111;-68
2022/07/12 11:07:59;;;;;;;0.95;0.80;;;23.60;98.40;;;;;;5008389;28;20604;-68
2022/07/12 11:10:31;;;;;;;1.75;1.02;;;23.50;98.40;;;;;;4996962;28;20042;-68
2022/07/12 11:13:21;;;;;;;1.58;0.90;;;23.50;98.00;;;;;;4995947;28;20101;-68
2022/07/12 11:15:59;;;;;;;4.43;0.90;;;23.60;98.30;;;;;;4986374;28;20042;-68
2022/07/12 11:18:33;;;;;;;3.15;1.10;;;23.60;97.90;;;;;;4995799;28;20042;-68
2022/07/12 11:21:06;;;;;;;0.95;0.80;;;23.70;97.20;;;;;;4992298;28;20051;-69
2022/07/12 11:23:40;;;;;;;1.02;0.90;;;23.70;96.20;;;;;;4995742;28;20081;-68
2022/07/12 11:26:13;;;;;;;2.67;0.60;;;23.80;96.90;;;;;;4994577;28;20620;-70
2022/07/12 11:28:48;;;;;;;2.25;0.63;;;24.00;96.70;;;;;;4950648;28;20062;-69
2022/07/12 11:31:21;;;;;;;0.63;0.60;;;24.10;96.10;;;;;;4992738;28;20039;-68
2022/07/12 11:33:53;;;;;;;1.40;0.60;;;24.20;95.90;;;;;;4992198;28;20401;-68
2022/07/12 11:36:27;;;;;;;1.23;0.90;;;24.30;95.80;;;;;;4987615;28;20038;-70
2022/07/12 11:39:00;;;;;;;1.60;0.60;;;24.10;95.20;;;;;;4977312;28;20046;-70
2022/07/12 11:41:31;;;;;;;1.08;0.95;;;24.10;95.80;;;;;;4992627;28;20038;-70
2022/07/12 11:44:03;;;;;;;0.73;0.63;;;24.20;96.20;;;;;;4992002;28;20050;-70
2022/07/12 11:46:35;;;;;;;0.98;0.60;;;24.20;95.80;;;;;;4994108;28;20048;-70
2022/07/12 11:49:07;;;;;;;1.52;0.55;;;24.20;95.80;;;;;;4990730;28;20038;-70
2022/07/12 11:51:39;;;;;;;0.75;0.65;;;24.30;95.70;;;;;;4992594;28;20490;-70
2022/07/12 11:54:10;;;;;;;0.50;0.47;;;24.50;95.40;;;;;;4988227;28;20046;-69
2022/07/12 11:56:42;;;;;;;2.38;0.70;;;24.50;94.40;;;;;;4991678;28;20064;-70
2022/07/12 11:59:22;;;;;;;2.35;0.82;;;24.70;94.70;;;;;;4986723;28;20498;-70
2022/07/12 12:02:24;;;;;;;0.90;0.60;;;24.80;93.50;;;;;;4993494;28;20092;-70
2022/07/12 12:04:56;;;;;;;2.90;0.50;;;24.90;93.40;;;;;;4980138;28;20086;-69
2022/07/12 12:07:23;;;;;;;1.13;0.57;;;24.90;92.80;;;;;;4987171;28;20605;-69
2022/07/12 12:10:17;;;;;;;0.70;0.40;;;24.80;93.10;;;;;;4992212;28;20114;-70
2022/07/12 12:12:54;;;;;;;0.73;0.40;;;24.80;92.70;;;;;;4986903;28;20064;-69
2022/07/12 12:15:31;;;;;;;0.68;0.60;;;24.70;92.90;;;;;;4987963;28;20508;-71
2022/07/12 12:18:04;;;;;;;0.90;0.50;;;24.60;92.90;;;;;;4990046;28;20046;-70
2022/07/12 12:20:36;;;;;;;2.22;0.70;;;24.70;92.60;;;;;;4989390;28;20155;-70
2022/07/12 12:23:16;;;;;;;0.82;0.52;;;24.70;92.40;;;;;;4989690;28;20052;-69
2022/07/12 12:25:48;;;;;;;0.90;0.60;;;24.50;92.00;;;;;;4986958;28;20034;-70
2022/07/12 12:28:20;;;;;;;0.60;0.45;;;24.70;92.00;;;;;;4988693;28;20034;-69
2022/07/12 12:30:54;;;;;;;0.70;0.50;;;24.90;92.40;;;;;;4984773;28;20109;-70
2022/07/12 12:33:37;;;;;;;1.85;0.70;;;25.20;91.90;;;;;;4988912;28;20082;-70
2022/07/12 12:36:19;;;;;;;2.70;0.55;;;25.30;90.90;;;;;;4984209;28;20530;-68
2022/07/12 12:38:54;;;;;;;0.80;0.55;;;25.60;90.60;;;;;;4986117;28;20061;-70
2022/07/12 12:41:29;;;;;;;0.65;0.60;;;25.60;89.80;;;;;;4986705;28;20072;-69
2022/07/12 12:44:03;;;;;;;0.80;0.60;;;25.50;90.20;;;;;;4986712;28;20046;-70
2022/07/12 12:49:50;;;;;;;3.78;0.60;;;25.90;89.80;;;;;;4983577;28;20048;-69
2022/07/12 12:52:23;;;;;;;0.80;0.50;;;25.90;89.20;;;;;;4974450;28;20042;-69
2022/07/12 12:54:56;;;;;;;0.40;0.40;;;25.90;88.90;;;;;;4987384;28;20047;-68
2022/07/12 12:57:28;;;;;;;;;;;25.90;88.20;;;;;;4974142;28;20065;-69
2022/07/12 13:00:00;;;;;;;0.75;0.50;;;26.10;89.00;;;;;;4989709;28;19926;-69
2022/07/12 13:02:32;;;;;;;0.50;0.50;;;26.20;87.80;;;;;;4985919;28;20064;-69
2022/07/12 13:04:58;;;;;;;1.60;0.60;;;26.50;87.60;;;;;;4967919;28;20141;-70
2022/07/12 13:07:30;;;;;;;0.93;0.50;;;26.90;84.90;;;;;;4968152;28;20093;-69
2022/07/12 13:10:02;;;;;;;0.85;0.50;;;27.00;84.80;;;;;;4983258;28;20057;-69
2022/07/12 13:12:34;;;;;;;1.40;0.60;;;26.90;82.40;;;;;;4987844;28;20042;-69
2022/07/12 13:15:07;;;;;;;0.80;0.50;;;26.70;82.80;;;;;;4982548;28;20060;-68
2022/07/12 13:17:39;;;;;;;3.17;0.50;;;26.80;83.60;;;;;;4983661;28;20410;-69
2022/07/12 13:20:12;;;;;;;0.73;0.50;;;27.00;83.60;;;;;;4986539;28;20052;-69
2022/07/12 13:22:45;;;;;;;5.03;0.73;;;27.10;81.40;;;;;;4983555;28;20129;-70
2022/07/12 13:25:17;;;;;;;2.40;0.60;;;27.30;81.90;;;;;;4985692;28;20487;-69
2022/07/12 13:27:50;;;;;;;5.10;0.65;;;27.10;81.00;;;;;;4987586;28;20054;-69